Time;durP1;ratioP1;P1;durP2;ratioP2;P2;SDS_P1;SDS_P2;PMS_P1;PMS_P2;Temp;Humidity;BMP_temperature;BMP_pressure;BME280_temperature;BME280_humidity;BME280_pressure;Samples;Min_cycle;Max_cycle;Signal;HPM_P1;HPM_P2
2023/09/01 00:01:58;;;;;;;;;;;;;;;-144.99;100.00;52407.31;5029258;28;20025;-64
2023/09/01 00:04:24;;;;;;;;;;;;;;;-144.99;100.00;52417.53;5026193;28;19950;-64
2023/09/01 00:06:51;;;;;;;;;;;;;;;-144.99;100.00;52358.41;5029196;28;20369;-64
2023/09/01 00:09:17;;;;;;;;;;;;;;;-144.99;100.00;52378.78;5019541;28;20446;-65
2023/09/01 00:11:43;;;;;;;;;;;;;;;-144.99;100.00;52372.69;5023034;28;20006;-65
2023/09/01 00:14:09;;;;;;;;;;;;;;;-144.99;100.00;52397.13;5026684;28;20632;-64
2023/09/01 00:16:37;;;;;;;;;;;;;;;-144.99;100.00;52382.88;5026728;28;19981;-66
2023/09/01 00:19:03;;;;;;;;;;;;;;;-144.99;100.00;52413.44;5030053;28;20015;-65
2023/09/01 00:21:30;;;;;;;;;;;;;;;-144.99;100.00;52370.63;5019708;28;19955;-65
2023/09/01 00:23:57;;;;;;;;;;;;;;;-144.99;100.00;52348.22;5022890;28;19981;-65
2023/09/01 00:26:23;;;;;;;;;;;;;;;-144.99;100.00;52407.31;5026859;28;20376;-65
2023/09/01 00:28:50;;;;;;;;;;;;;;;-144.99;100.00;52333.94;5021693;28;20020;-65
2023/09/01 00:31:17;;;;;;;;;;;;;;;-144.99;100.00;52360.44;5026563;28;19981;-65
2023/09/01 00:33:44;;;;;;;;;;;;;;;-144.99;100.00;52376.75;5024082;28;19999;-65
2023/09/01 00:36:11;;;;;;;;;;;;;;;-144.99;100.00;52407.31;5021846;28;19937;-66
2023/09/01 00:38:37;;;;;;;;;;;;;;;-144.99;100.00;52415.47;5025639;28;20050;-65
2023/09/01 00:41:04;;;;;;;;;;;;;;;-144.99;100.00;52391.03;5028376;28;19991;-65
2023/09/01 00:43:30;;;;;;;;;;;;;;;-144.99;100.00;52354.34;5026094;28;20406;-65
2023/09/01 00:45:57;;;;;;;;;;;;;;;-144.99;100.00;52374.72;5019773;28;19984;-65
2023/09/01 00:48:24;;;;;;;;;;;;;;;-144.99;100.00;52374.72;5024640;28;19944;-65
2023/09/01 00:50:52;;;;;;;;;;;;;;;-144.99;100.00;52366.56;5025239;28;19987;-64
2023/09/01 00:53:18;;;;;;;;;;;;;;;-144.99;100.00;52370.63;5028457;28;20499;-64
2023/09/01 00:55:45;;;;;;;;;;;;;;;-144.99;100.00;52378.78;5023299;28;19985;-64
2023/09/01 00:58:12;;;;;;;;;;;;;;;-144.99;100.00;52399.19;5025283;28;19977;-64
2023/09/01 01:00:39;;;;;;;;;;;;;;;-144.99;100.00;52391.03;5024520;28;20012;-64
2023/09/01 01:03:07;;;;;;;;;;;;;;;-144.99;100.00;52407.31;5024889;28;19959;-64
2023/09/01 01:05:37;;;;;;;;;;;;;;;-144.99;100.00;52399.19;5016767;28;19946;-63
2023/09/01 01:08:08;;;;;;;;;;;;;;;-144.99;100.00;52399.19;5028978;28;19969;-65
2023/09/01 01:10:39;;;;;;;;;;;;;;;-144.99;100.00;52362.50;5017898;28;20310;-62
2023/09/01 01:13:07;;;;;;;;;;;;;;;-144.99;100.00;52403.25;5020380;28;20053;-63
2023/09/01 01:15:35;;;;;;;;;;;;;;;-144.99;100.00;52374.72;5023219;28;20006;-62
2023/09/01 01:18:04;;;;;;;;;;;;;;;-144.99;100.00;52354.34;5025190;28;19986;-62
2023/09/01 01:20:35;;;;;;;;;;;;;;;-144.99;100.00;52382.88;5028207;28;19956;-61
2023/09/01 01:23:07;;;;;;;;;;;;;;;-144.99;100.00;52403.25;5024067;28;19964;-64
2023/09/01 01:25:33;;;;;;;;;;;;;;;-144.99;100.00;52366.56;5024005;28;20113;-62
2023/09/01 01:28:06;;;;;;;;;;;;;;;-144.99;100.00;52378.78;5028125;28;20420;-62
2023/09/01 01:30:32;;;;;;;;;;;;;;;-144.99;100.00;52370.63;5022481;28;19992;-62
2023/09/01 01:32:59;;;;;;;;;;;;;;;-144.99;100.00;52358.41;5017281;28;20386;-61
2023/09/01 01:35:30;;;;;;;;;;;;;;;-144.99;100.00;52362.50;5024699;28;19936;-65
2023/09/01 01:37:59;;;;;;;;;;;;;;;-144.99;100.00;52372.69;5025384;28;19951;-65
2023/09/01 01:40:29;;;;;;;;;;;;;;;-144.99;100.00;52433.81;5026220;28;19963;-68
2023/09/01 01:42:57;;;;;;;;;;;;;;;-144.99;100.00;52386.94;5027021;28;20001;-68
2023/09/01 01:45:25;;;;;;;;;;;;;;;-144.99;100.00;52399.19;5019644;28;19981;-68
2023/09/01 01:47:52;;;;;;;;;;;;;;;-144.99;100.00;52382.88;5020720;28;20248;-68
2023/09/01 01:50:19;;;;;;;;;;;;;;;-144.99;100.00;52403.25;5029198;28;20358;-68
2023/09/01 01:52:45;;;;;;;;;;;;;;;-144.99;100.00;52403.25;5025534;28;20012;-67
2023/09/01 01:55:12;;;;;;;;;;;;;;;-144.99;100.00;52378.78;5022607;28;20461;-68
2023/09/01 01:57:39;;;;;;;;;;;;;;;-144.99;100.00;52378.78;5025633;28;20449;-70
2023/09/01 02:00:11;;;;;;;;;;;;;;;-144.99;100.00;52358.41;5031624;28;20669;-68
2023/09/01 02:02:37;;;;;;;;;;;;;;;-144.99;100.00;52409.38;5031942;28;19963;-69
2023/09/01 02:05:06;;;;;;;;;;;;;;;-144.99;100.00;52354.34;5026581;28;20039;-63
2023/09/01 02:07:32;;;;;;;;;;;;;;;-144.99;100.00;52382.88;5027320;28;19944;-63
2023/09/01 02:09:59;;;;;;;;;;;;;;;-144.99;100.00;52401.22;5030065;28;20467;-63
2023/09/01 02:12:25;;;;;;;;;;;;;;;-144.99;100.00;52399.19;5028853;28;20332;-62
2023/09/01 02:14:53;;;;;;;;;;;;;;;-144.99;100.00;52366.56;5029378;28;20026;-62
2023/09/01 02:17:20;;;;;;;;;;;;;;;-144.99;100.00;52382.88;5028146;28;20201;-62
2023/09/01 02:19:46;;;;;;;;;;;;;;;-144.99;100.00;52435.88;5030980;28;19945;-62
2023/09/01 02:22:12;;;;;;;;;;;;;;;-144.99;100.00;52366.56;5025641;28;20044;-63
2023/09/01 02:24:39;;;;;;;;;;;;;;;-144.99;100.00;52407.31;5027020;28;19983;-63
2023/09/01 02:27:05;;;;;;;;;;;;;;;-144.99;100.00;52413.44;5026313;28;20022;-63
2023/09/01 02:29:32;;;;;;;;;;;;;;;-144.99;100.00;52417.53;5025067;28;20036;-64
2023/09/01 02:32:00;;;;;;;;;;;;;;;-144.99;100.00;52403.25;5026560;28;20311;-64
2023/09/01 02:34:26;;;;;;;;;;;;;;;-144.99;100.00;52374.72;5027256;28;20384;-64
2023/09/01 02:36:53;;;;;;;;;;;;;;;-144.99;100.00;52403.25;5030356;28;20380;-64
2023/09/01 02:39:19;;;;;;;;;;;;;;;-144.99;100.00;52399.19;5029305;28;19997;-66
2023/09/01 02:41:46;;;;;;;;;;;;;;;-144.99;100.00;52358.41;5028337;28;20104;-67
2023/09/01 02:44:12;;;;;;;;;;;;;;;-144.99;100.00;52395.09;5026623;28;19983;-67
2023/09/01 02:46:39;;;;;;;;;;;;;;;-144.99;100.00;52372.69;5024131;28;20365;-66
2023/09/01 02:49:07;;;;;;;;;;;;;;;-144.99;100.00;52388.97;5030923;28;20050;-65
2023/09/01 02:51:33;;;;;;;;;;;;;;;-144.99;100.00;52395.09;5028557;28;19982;-65
2023/09/01 02:54:00;;;;;;;;;;;;;;;-144.99;100.00;52423.63;5018107;28;19963;-67
2023/09/01 02:56:26;;;;;;;;;;;;;;;-144.99;100.00;52362.50;5031525;28;20038;-66
2023/09/01 02:58:53;;;;;;;;;;;;;;;-144.99;100.00;52431.78;5021867;28;20324;-64
2023/09/01 03:01:19;;;;;;;;;;;;;;;-144.99;100.00;52423.63;5030664;28;20009;-66
2023/09/01 03:03:46;;;;;;;;;;;;;;;-144.99;100.00;52386.94;5023190;28;19954;-64
2023/09/01 03:06:13;;;;;;;;;;;;;;;-144.99;100.00;52382.88;5030826;28;19947;-64
2023/09/01 03:08:40;;;;;;;;;;;;;;;-144.99;100.00;52397.13;5026530;28;20035;-69
2023/09/01 03:11:06;;;;;;;;;;;;;;;-144.99;100.00;52374.72;5025224;28;20079;-69
2023/09/01 03:13:33;;;;;;;;;;;;;;;-144.99;100.00;52415.47;5027503;28;19992;-69
2023/09/01 03:15:59;;;;;;;;;;;;;;;-144.99;100.00;52409.38;5030574;28;20008;-68
2023/09/01 03:18:26;;;;;;;;;;;;;;;-144.99;100.00;52386.94;5030370;28;19989;-68
2023/09/01 03:20:53;;;;;;;;;;;;;;;-144.99;100.00;52382.88;5028415;28;19957;-69
2023/09/01 03:23:21;;;;;;;;;;;;;;;-144.99;100.00;52378.78;5025631;28;20317;-69
2023/09/01 03:25:53;;;;;;;;;;;;;;;-144.99;100.00;52407.31;5023346;28;20395;-69
2023/09/01 03:28:20;;;;;;;;;;;;;;;-144.99;100.00;52395.09;5022471;28;20379;-69
2023/09/01 03:30:46;;;;;;;;;;;;;;;-144.99;100.00;52403.25;5044230;22;20421;-68
2023/09/01 03:33:12;;;;;;;;;;;;;;;-144.99;100.00;52391.03;5009679;28;19958;-66
2023/09/01 03:35:39;;;;;;;;;;;;;;;-144.99;100.00;52427.72;5009340;28;20429;-66
2023/09/01 03:38:06;;;;;;;;;;;;;;;-144.99;100.00;52407.31;5009572;28;19980;-65
2023/09/01 03:40:36;;;;;;;;;;;;;;;-144.99;100.00;52403.25;5007635;28;19946;-66
2023/09/01 03:43:02;;;;;;;;;;;;;;;-144.99;100.00;52411.41;5010710;28;20519;-65
2023/09/01 03:45:29;;;;;;;;;;;;;;;-144.99;100.00;52431.78;5009187;28;20021;-66
2023/09/01 03:47:55;;;;;;;;;;;;;;;-144.99;100.00;52370.63;5009413;28;19948;-72
2023/09/01 03:50:22;;;;;;;;;;;;;;;-144.99;100.00;52393.06;5009379;28;20038;-73
2023/09/01 03:52:48;;;;;;;;;;;;;;;-144.99;100.00;52427.72;5001705;28;20137;-72
2023/09/01 03:55:15;;;;;;;;;;;;;;;-144.99;100.00;52386.94;5005281;28;19940;-72
2023/09/01 03:57:43;;;;;;;;;;;;;;;-144.99;100.00;52393.06;5009672;28;20415;-73
2023/09/01 04:00:11;;;;;;;;;;;;;;;-144.99;100.00;52362.50;5002439;28;19940;-72
2023/09/01 04:02:38;;;;;;;;;;;;;;;-144.99;100.00;52411.41;5000942;28;19956;-72
2023/09/01 04:05:05;;;;;;;;;;;;;;;-144.99;100.00;52403.25;5000307;28;20332;-72
2023/09/01 04:07:31;;;;;;;;;;;;;;;-144.99;100.00;52417.53;5005416;28;20105;-72
2023/09/01 04:09:58;;;;;;;;;;;;;;;-144.99;100.00;52395.09;5007020;28;20355;-71
2023/09/01 04:12:25;;;;;;;;;;;;;;;-144.99;100.00;52382.88;5004122;28;20442;-72
2023/09/01 04:14:53;;;;;;;;;;;;;;;-144.99;100.00;52423.63;5007973;28;19982;-71
2023/09/01 04:17:19;;;;;;;;;;;;;;;-144.99;100.00;52395.09;5006918;28;19946;-72
2023/09/01 04:19:47;;;;;;;;;;;;;;;-144.99;100.00;52415.47;5008958;28;20360;-72
2023/09/01 04:22:13;;;;;;;;;;;;;;;-144.99;100.00;52399.19;5002841;28;19983;-74
2023/09/01 04:24:40;;;;;;;;;;;;;;;-144.99;100.00;52391.03;5008898;28;20439;-73
2023/09/01 04:27:06;;;;;;;;;;;;;;;-144.99;100.00;52395.09;5007485;28;20301;-72
2023/09/01 04:29:33;;;;;;;;;;;;;;;-144.99;100.00;52407.31;5008757;28;20399;-71
2023/09/01 04:32:01;;;;;;;;;;;;;;;-144.99;100.00;52407.31;5007423;28;20038;-73
2023/09/01 04:34:28;;;;;;;;;;;;;;;-144.99;100.00;52407.31;5008252;28;20019;-72
2023/09/01 04:36:54;;;;;;;;;;;;;;;-144.99;100.00;52427.72;5008385;28;19991;-71
2023/09/01 04:39:21;;;;;;;;;;;;;;;-144.99;100.00;52399.19;5008823;28;19941;-72
2023/09/01 04:41:47;;;;;;;;;;;;;;;-144.99;100.00;52427.72;5005220;28;20002;-71
2023/09/01 04:44:14;;;;;;;;;;;;;;;-144.99;100.00;52431.78;5008360;28;19952;-71
2023/09/01 04:46:40;;;;;;;;;;;;;;;-144.99;100.00;52407.31;5008627;28;19941;-72
2023/09/01 04:49:08;;;;;;;;;;;;;;;-144.99;100.00;52423.63;5005466;28;20326;-71
2023/09/01 04:51:34;;;;;;;;;;;;;;;-144.99;100.00;52423.63;5003165;28;19937;-72
2023/09/01 04:54:02;;;;;;;;;;;;;;;-144.99;100.00;52431.78;5008143;28;19961;-72
2023/09/01 04:56:28;;;;;;;;;;;;;;;-144.99;100.00;52419.56;5007920;28;19936;-73
2023/09/01 04:58:55;;;;;;;;;;;;;;;-144.99;100.00;52403.25;5008152;28;19945;-72
2023/09/01 05:01:21;;;;;;;;;;;;;;;-144.99;100.00;52411.41;5008479;28;20061;-72
2023/09/01 05:03:48;;;;;;;;;;;;;;;-144.99;100.00;52399.19;5008221;28;20033;-71
2023/09/01 05:06:16;;;;;;;;;;;;;;;-144.99;100.00;52399.19;5008805;28;19943;-71
2023/09/01 05:08:42;;;;;;;;;;;;;;;-144.99;100.00;52403.25;5008895;28;19999;-71
2023/09/01 05:11:08;;;;;;;;;;;;;;;-144.99;100.00;52435.88;5008855;28;19943;-74
2023/09/01 05:13:36;;;;;;;;;;;;;;;-144.99;100.00;52378.78;5008164;28;20050;-71
2023/09/01 05:16:03;;;;;;;;;;;;;;;-144.99;100.00;52399.19;5007656;28;20062;-75
2023/09/01 05:18:29;;;;;;;;;;;;;;;-144.99;100.00;52382.88;5008042;28;20037;-71
2023/09/01 05:20:56;;;;;;;;;;;;;;;-144.99;100.00;52391.03;5006851;28;20097;-71
2023/09/01 05:23:25;;;;;;;;;;;;;;;-144.99;100.00;52399.19;5007754;28;20390;-72
2023/09/01 05:25:53;;;;;;;;;;;;;;;-144.99;100.00;52350.25;5006373;28;19945;-71
2023/09/01 05:28:19;;;;;;;;;;;;;;;-144.99;100.00;52421.59;5001689;28;19944;-73
2023/09/01 05:30:47;;;;;;;;;;;;;;;-144.99;100.00;52364.53;5007612;28;19941;-71
2023/09/01 05:33:13;;;;;;;;;;;;;;;-144.99;100.00;52366.56;5008150;28;19974;-71
2023/09/01 05:35:40;;;;;;;;;;;;;;;-144.99;100.00;52399.19;5007671;28;19994;-71
2023/09/01 05:38:06;;;;;;;;;;;;;;;-144.99;100.00;52415.47;5008524;28;19944;-71
2023/09/01 05:40:34;;;;;;;;;;;;;;;-144.99;100.00;52362.50;5005279;28;20022;-72
2023/09/01 05:43:00;;;;;;;;;;;;;;;-144.99;100.00;52403.25;5009703;28;20014;-72
2023/09/01 05:45:27;;;;;;;;;;;;;;;-144.99;100.00;52399.19;5007313;28;20026;-71
2023/09/01 05:47:56;;;;;;;;;;;;;;;-144.99;100.00;52386.94;5008296;28;20020;-72
2023/09/01 05:50:22;;;;;;;;;;;;;;;-144.99;100.00;52374.72;5007681;28;20374;-72
2023/09/01 05:52:49;;;;;;;;;;;;;;;-144.99;100.00;52388.97;5007677;28;20282;-71
2023/09/01 05:55:16;;;;;;;;;;;;;;;-144.99;100.00;52362.50;5007666;28;20046;-72
2023/09/01 05:57:44;;;;;;;;;;;;;;;-144.99;100.00;52382.88;5007929;28;20040;-71
2023/09/01 06:00:11;;;;;;;;;;;;;;;-144.99;100.00;52391.03;5007768;28;20002;-72
2023/09/01 06:02:37;;;;;;;;;;;;;;;-144.99;100.00;52388.97;5008370;28;20438;-72
2023/09/01 06:05:05;;;;;;;;;;;;;;;-144.99;100.00;52388.97;5007811;28;19955;-72
2023/09/01 06:07:31;;;;;;;;;;;;;;;-144.99;100.00;52370.63;5008316;28;19982;-72
2023/09/01 06:09:58;;;;;;;;;;;;;;;-144.99;100.00;52403.25;5008248;28;19939;-72
2023/09/01 06:12:25;;;;;;;;;;;;;;;-144.99;100.00;52346.19;5008460;28;19955;-72
2023/09/01 06:14:52;;;;;;;;;;;;;;;-144.99;100.00;52366.56;5007698;28;19943;-71
2023/09/01 06:17:19;;;;;;;;;;;;;;;-144.99;100.00;52364.53;5007864;28;19976;-71
2023/09/01 06:19:45;;;;;;;;;;;;;;;-144.99;100.00;52382.88;5008017;28;19941;-73
2023/09/01 06:22:13;;;;;;;;;;;;;;;-144.99;100.00;52407.31;5007828;28;20357;-72
2023/09/01 06:24:42;;;;;;;;;;;;;;;-144.99;100.00;52395.09;5008011;28;20391;-72
2023/09/01 06:27:09;;;;;;;;;;;;;;;-144.99;100.00;52399.19;5007664;28;19977;-72
2023/09/01 06:29:35;;;;;;;;;;;;;;;-144.99;100.00;52360.44;5007854;28;20322;-71
2023/09/01 06:32:03;;;;;;;;;;;;;;;-144.99;100.00;52354.34;5007623;28;19967;-72
2023/09/01 06:34:30;;;;;;;;;;;;;;;-144.99;100.00;52374.72;5007390;28;19947;-72
2023/09/01 06:36:57;;;;;;;;;;;;;;;-144.99;100.00;52391.03;5009973;28;20042;-72
2023/09/01 06:39:24;;;;;;;;;;;;;;;-144.99;100.00;52378.78;5011382;28;20304;-71
2023/09/01 06:41:50;;;;;;;;;;;;;;;-144.99;100.00;52407.31;5011061;28;20028;-72
2023/09/01 06:44:17;;;;;;;;;;;;;;;-144.99;100.00;52401.22;5010880;28;19943;-72
2023/09/01 06:46:43;;;;;;;;;;;;;;;-144.99;100.00;52346.19;5011313;28;19990;-72
2023/09/01 06:49:11;;;;;;;;;;;;;;;-144.99;100.00;52399.19;5011138;28;19972;-72
2023/09/01 06:51:38;;;;;;;;;;;;;;;-144.99;100.00;52336.00;5011269;28;19939;-72
2023/09/01 06:54:04;;;;;;;;;;;;;;;-144.99;100.00;52342.09;5010613;28;20490;-72
2023/09/01 06:56:31;;;;;;;;;;;;;;;-144.99;100.00;52374.72;5010926;28;19948;-72
2023/09/01 06:58:57;;;;;;;;;;;;;;;-144.99;99.48;52370.63;5009145;28;19990;-71
2023/09/01 07:01:23;;;;;;;;;;;;;;;-144.99;98.74;52350.25;5011124;28;20041;-73
2023/09/01 07:03:50;;;;;;;;;;;;;;;-144.99;97.71;52374.72;5010721;28;19958;-72
2023/09/01 07:06:18;;;;;;;;;;;;;;;-144.99;96.26;52309.50;5011183;28;19947;-72
2023/09/01 07:08:45;;;;;;;;;;;;;;;-144.99;95.79;52342.09;5011148;28;19992;-72
2023/09/01 07:11:14;;;;;;;;;;;;;;;-144.99;94.89;52309.50;5011064;28;19938;-72
2023/09/01 07:13:40;;;;;;;;;;;;;;;-144.99;94.25;52346.19;5010684;28;20060;-74
2023/09/01 07:16:07;;;;;;;;;;;;;;;-144.99;94.15;52354.34;5011028;28;19976;-73
2023/09/01 07:18:33;;;;;;;;;;;;;;;-144.99;93.44;52333.94;5011175;28;19951;-73
2023/09/01 07:21:01;;;;;;;;;;;;;;;-144.99;92.68;52386.94;5008162;28;20032;-73
2023/09/01 07:23:28;;;;;;;;;;;;;;;-144.99;92.12;52329.88;5010608;28;20046;-72
2023/09/01 07:25:55;;;;;;;;;;;;;;;-144.99;91.70;52333.94;5010656;28;20379;-72
2023/09/01 07:28:22;;;;;;;;;;;;;;;-144.99;91.37;52329.88;5010662;28;19937;-73
2023/09/01 07:30:49;;;;;;;;;;;;;;;-144.99;91.28;52348.22;5009968;28;20400;-74
2023/09/01 07:33:16;;;;;;;;;;;;;;;-144.99;90.81;52346.19;5010324;28;19993;-73
2023/09/01 07:35:45;;;;;;;;;;;;;;;-144.99;90.68;52321.72;5010360;28;19979;-73
2023/09/01 07:38:11;;;;;;;;;;;;;;;-144.99;90.16;52354.34;5010231;28;19938;-74
2023/09/01 07:40:39;;;;;;;;;;;;;;;-144.99;89.81;52338.03;5011360;28;20025;-73
2023/09/01 07:43:06;;;;;;;;;;;;;;;-144.99;89.21;52321.72;5011049;28;20037;-74
2023/09/01 07:45:32;;;;;;;;;;;;;;;-144.99;88.84;52346.19;5009801;28;20074;-74
2023/09/01 07:47:59;;;;;;;;;;;;;;;-144.99;88.45;52329.88;5009936;28;19949;-73
2023/09/01 07:50:29;;;;;;;;;;;;;;;-144.99;87.51;52329.88;5009968;28;20406;-73
2023/09/01 07:52:56;;;;;;;;;;;;;;;-144.99;86.44;52319.69;5010758;28;20000;-72
2023/09/01 07:55:22;;;;;;;;;;;;;;;-144.99;85.67;52287.06;5010636;28;20432;-72
2023/09/01 07:57:50;;;;;;;;;;;;;;;-144.99;85.67;52293.19;5009781;28;20031;-73
2023/09/01 08:00:17;;;;;;;;;;;;;;;-144.99;84.96;52309.50;5008449;28;19950;-72
2023/09/01 08:02:44;;;;;;;;;;;;;;;-144.99;84.70;52321.72;5010288;28;19966;-73
2023/09/01 08:05:11;;;;;;;;;;;;;;;-144.99;84.19;52327.84;5009449;28;19939;-73
2023/09/01 08:07:37;;;;;;;;;;;;;;;-144.99;84.51;52338.03;5009957;28;19998;-75
2023/09/01 08:10:04;;;;;;;;;;;;;;;-144.99;84.49;52293.19;5009827;28;20037;-73
2023/09/01 08:12:30;;;;;;;;;;;;;;;-144.99;84.08;52270.78;5007196;28;20056;-74
2023/09/01 08:14:58;;;;;;;;;;;;;;;-144.99;82.66;52333.94;5006988;28;19943;-73
2023/09/01 08:17:25;;;;;;;;;;;;;;;-144.99;83.46;52309.50;5009867;28;20039;-73
2023/09/01 08:19:51;;;;;;;;;;;;;;;-144.99;82.75;52313.56;5006600;28;20263;-72
2023/09/01 08:22:18;;;;;;;;;;;;;;;-144.99;82.68;52285.03;5007195;28;19968;-73
2023/09/01 08:24:44;;;;;;;;;;;;;;;-144.99;83.36;52297.25;5003418;28;19977;-74
2023/09/01 08:27:11;;;;;;;;;;;;;;;-144.99;83.29;52307.47;5009901;28;19983;-73
2023/09/01 08:29:38;;;;;;;;;;;;;;;-144.99;83.94;52313.56;5009709;28;19948;-75
2023/09/01 08:32:06;;;;;;;;;;;;;;;-144.99;83.13;52325.81;5009379;28;20086;-73
2023/09/01 08:34:33;;;;;;;;;;;;;;;-144.99;82.71;52325.81;5009000;28;20382;-72
2023/09/01 08:36:59;;;;;;;;;;;;;;;-144.99;82.28;52325.81;5009505;28;20196;-73
2023/09/01 08:39:26;;;;;;;;;;;;;;;-144.99;81.54;52297.25;5009551;28;20037;-74
2023/09/01 08:41:53;;;;;;;;;;;;;;;-144.99;81.17;52289.13;5011229;28;20087;-74
2023/09/01 08:44:23;;;;;;;;;;;;;;;-144.99;80.86;52268.72;5008600;28;19977;-75
2023/09/01 08:46:50;;;;;;;;;;;;;;;-144.99;79.74;52252.44;5009325;28;19957;-75
2023/09/01 08:49:18;;;;;;;;;;;;;;;-144.99;79.33;52272.81;5009690;28;19986;-73
2023/09/01 08:51:47;;;;;;;;;;;;;;;-144.99;78.20;52285.03;5009705;28;20037;-74
2023/09/01 08:54:13;;;;;;;;;;;;;;;-144.99;78.36;52260.56;5002462;28;20355;-74
2023/09/01 08:56:40;;;;;;;;;;;;;;;-144.99;78.29;52301.34;5009448;28;19970;-75
2023/09/01 08:59:06;;;;;;;;;;;;;;;-144.99;77.97;52317.66;5008441;28;19948;-74
2023/09/01 09:01:33;;;;;;;;;;;;;;;-144.99;77.96;52272.81;5001129;28;20017;-74
2023/09/01 09:04:00;;;;;;;;;;;;;;;-144.99;78.24;52256.50;5008505;28;20572;-73
2023/09/01 09:06:36;;;;;;;;;;;;;;;-144.99;77.81;52283.00;5004371;28;19985;-74
2023/09/01 09:09:07;;;;;;;;;;;;;;;-144.99;76.38;52252.44;5007830;28;19984;-74
2023/09/01 09:11:33;;;;;;;;;;;;;;;-144.99;75.38;52256.50;5009124;28;20002;-74
2023/09/01 09:14:00;;;;;;;;;;;;;;;-144.99;75.10;52264.66;5008732;28;19964;-74
2023/09/01 09:16:26;;;;;;;;;;;;;;;-144.99;74.63;52260.56;5007324;28;20000;-75
2023/09/01 09:18:53;;;;;;;;;;;;;;;-144.99;75.96;52303.38;5009941;28;19943;-74
2023/09/01 09:21:24;;;;;;;;;;;;;;;-144.99;75.61;52289.13;5003620;28;20185;-75
2023/09/01 09:23:52;;;;;;;;;;;;;;;-144.99;75.78;52285.03;5008494;28;20025;-75
2023/09/01 09:26:24;;;;;;;;;;;;;;;-144.99;76.09;52272.81;5009405;28;19943;-75
2023/09/01 09:28:50;;;;;;;;;;;;;;;-144.99;75.11;52236.13;5009523;28;20043;-78
2023/09/01 09:31:17;;;;;;;;;;;;;;;-144.99;73.96;52244.28;5010703;28;19941;-76
2023/09/01 09:33:45;;;;;;;;;;;;;;;-144.99;73.04;52252.44;5044984;22;19957;-75
2023/09/01 09:36:11;;;;;;;;;;;;;;;-144.99;71.87;52223.88;5084521;28;19940;-74
2023/09/01 09:38:41;;;;;;;;;;;;;;;-144.99;72.01;52203.50;5073975;28;19939;-74
2023/09/01 09:41:09;;;;;;;;;;;;;;;-144.99;71.31;52199.44;5061684;28;19943;-74
2023/09/01 09:43:46;;;;;;;;;;;;;;;-144.99;71.22;52207.59;5045700;28;20006;-74
2023/09/01 09:46:12;;;;;;;;;;;;;;;-144.99;70.09;52211.66;5045136;28;20109;-75
2023/09/01 09:48:39;;;;;;;;;;;;;;;-144.99;70.19;52191.28;5048408;28;20001;-75
2023/09/01 09:51:07;;;;;;;;;;;;;;;-144.99;70.24;52211.66;5052076;28;19970;-75
2023/09/01 09:53:35;;;;;;;;;;;;;;;-144.99;69.96;52223.88;5059168;28;19954;-74
2023/09/01 09:56:10;;;;;;;;;;;;;;;-144.99;69.55;52227.97;5051221;28;19997;-74
2023/09/01 09:58:40;;;;;;;;;;;;;;;-144.99;69.75;52256.50;5041187;28;19948;-74
2023/09/01 10:01:11;;;;;;;;;;;;;;;-144.99;70.30;52278.91;5045393;28;20002;-74
2023/09/01 10:03:38;;;;;;;;;;;;;;;-144.99;70.68;52232.03;5043719;28;20410;-74
2023/09/01 10:06:05;;;;;;;;;;;;;;;-144.99;71.40;52280.97;5040043;28;20039;-74
2023/09/01 10:08:32;;;;;;;;;;;;;;;-144.99;71.21;52197.41;5041559;28;20022;-74
2023/09/01 10:11:00;;;;;;;;;;;;;;;-144.99;70.69;52166.81;5042181;28;20046;-74
2023/09/01 10:13:27;;;;;;;;;;;;;;;-144.99;69.58;52236.13;5050316;28;19961;-73
2023/09/01 10:15:56;;;;;;;;;;;;;;;-144.99;69.00;52199.44;5054193;28;20361;-74
2023/09/01 10:18:24;;;;;;;;;;;;;;;-144.99;69.21;52215.75;5044691;28;19949;-74
2023/09/01 10:20:51;;;;;;;;;;;;;;;-144.99;69.13;52154.59;5048737;28;19978;-74
2023/09/01 10:23:17;;;;;;;;;;;;;;;-144.99;68.44;52234.09;5047219;28;19984;-74
2023/09/01 10:25:58;;;;;;;;;;;;;;;-144.99;67.67;52227.97;5047911;28;20007;-73
2023/09/01 10:28:25;;;;;;;;;;;;;;;-144.99;67.90;52174.97;5043493;28;20014;-73
2023/09/01 10:30:51;;;;;;;;;;;;;;;-144.99;67.77;52236.13;5050747;28;19946;-73
2023/09/01 10:33:25;;;;;;;;;;;;;;;-144.99;68.89;52260.56;5050188;28;20742;-73
2023/09/01 10:35:53;;;;;;;;;;;;;;;-144.99;68.78;52227.97;5044854;28;19990;-73
2023/09/01 10:38:21;;;;;;;;;;;;;;;-144.99;69.87;52183.13;5046140;28;20199;-73
2023/09/01 10:40:48;;;;;;;;;;;;;;;-144.99;69.48;52097.53;5052540;28;19991;-73
2023/09/01 10:43:47;;;;;;;;;;;;;;;-144.99;68.95;52101.59;5043554;28;20033;-73
2023/09/01 10:46:28;;;;;;;;;;;;;;;-144.99;66.82;52117.91;5041526;28;19964;-73
2023/09/01 10:48:57;;;;;;;;;;;;;;;-144.99;65.45;52248.34;5049806;28;20299;-73
2023/09/01 10:51:25;;;;;;;;;;;;;;;-144.99;65.46;52097.53;5049294;28;20464;-74
2023/09/01 10:53:53;;;;;;;;;;;;;;;-144.99;65.39;52240.19;5049942;28;19961;-73
2023/09/01 10:56:20;;;;;;;;;;;;;;;-144.99;65.32;52215.75;5047542;28;20051;-73
2023/09/01 10:58:47;;;;;;;;;;;;;;;-144.99;65.34;52083.25;5052442;28;19938;-74
2023/09/01 11:01:36;;;;;;;;;;;;;;;-144.99;63.87;52052.69;5052734;28;19967;-73
2023/09/01 11:04:21;;;;;;;;;;;;;;;-144.99;62.70;52105.69;5050097;28;20016;-74
2023/09/01 11:07:09;;;;;;;;;;;;;;;-144.99;60.88;52056.78;5048045;28;20012;-73
2023/09/01 11:10:01;;;;;;;;;;;;;;;-144.99;60.89;52203.50;5044958;28;20088;-74
2023/09/01 11:12:29;;;;;;;;;;;;;;;-144.99;62.65;52225.94;5045224;28;19965;-73
2023/09/01 11:14:59;;;;;;;;;;;;;;;-144.99;63.53;52130.13;5043410;28;19952;-74
2023/09/01 11:17:37;;;;;;;;;;;;;;;-144.99;62.64;52056.78;5043670;28;19937;-74
2023/09/01 11:20:05;;;;;;;;;;;;;;;-144.99;61.84;52071.03;5047169;28;20042;-73
2023/09/01 11:22:31;;;;;;;;;;;;;;;-144.99;62.89;52174.97;5047388;28;20061;-74
2023/09/01 11:24:59;;;;;;;;;;;;;;;-144.99;63.91;52097.53;5045565;28;20444;-72
2023/09/01 11:27:26;;;;;;;;;;;;;;;-144.99;64.16;52170.91;5050016;28;20235;-74
2023/09/01 11:29:54;;;;;;;;;;;;;;;-144.99;65.11;52258.53;5041071;28;20351;-74
2023/09/01 11:32:25;;;;;;;;;;;;;;;-144.99;66.38;52232.03;5047173;28;19997;-74
2023/09/01 11:34:51;;;;;;;;;;;;;;;-144.99;66.17;52236.13;5037727;28;20001;-74
2023/09/01 11:37:18;;;;;;;;;;;;;;;-144.99;66.63;52240.19;5051522;28;20023;-74
2023/09/01 11:39:44;;;;;;;;;;;;;;;-144.99;67.38;52199.44;5049604;28;19945;-73
2023/09/01 11:42:12;;;;;;;;;;;;;;;-144.99;68.05;52276.88;5041934;28;20330;-73
2023/09/01 11:44:39;;;;;;;;;;;;;;;-144.99;68.21;52152.56;5045913;28;19957;-73
2023/09/01 11:47:11;;;;;;;;;;;;;;;-144.99;66.82;52252.44;5050265;28;19978;-73
2023/09/01 11:49:42;;;;;;;;;;;;;;;-144.99;66.11;52244.28;5051343;28;19937;-73
2023/09/01 11:52:09;;;;;;;;;;;;;;;-144.99;65.98;52268.72;5048743;28;20011;-71
2023/09/01 11:54:40;;;;;;;;;;;;;;;-144.99;66.94;52199.44;5045934;28;19965;-73
2023/09/01 11:57:13;;;;;;;;;;;;;;;-144.99;66.75;52219.81;5051267;28;19940;-72
2023/09/01 11:59:44;;;;;;;;;;;;;;;-144.99;66.24;52183.13;5050575;28;19941;-72
2023/09/01 12:02:11;;;;;;;;;;;;;;;-144.99;65.68;52146.44;5050927;28;20011;-73
2023/09/01 12:04:44;;;;;;;;;;;;;;;-144.99;65.32;52152.56;5040440;28;20003;-73
2023/09/01 12:07:21;;;;;;;;;;;;;;;-144.99;64.71;52101.59;5046989;28;19976;-72
2023/09/01 12:09:48;;;;;;;;;;;;;;;-144.99;65.12;52236.13;5047188;28;19999;-72
2023/09/01 12:12:16;;;;;;;;;;;;;;;-144.99;64.67;52248.34;5044366;28;19958;-72
2023/09/01 12:14:42;;;;;;;;;;;;;;;-144.99;64.46;52199.44;5049399;28;20046;-72
2023/09/01 12:17:16;;;;;;;;;;;;;;;-144.99;64.24;52095.50;5040982;28;19986;-72
2023/09/01 12:19:45;;;;;;;;;;;;;;;-144.99;63.62;52071.03;5046101;28;19940;-72
2023/09/01 12:22:12;;;;;;;;;;;;;;;-144.99;63.76;52099.56;5045226;28;20354;-71
2023/09/01 12:24:38;;;;;;;;;;;;;;;-144.99;63.26;52093.44;5046327;28;20068;-73